sensor_id;sensor_type;location;lat;lon;timestamp;pressure;altitude;pressure_sealevel;temperature;humidity
46015;BME280;36844;51.898;-0.874;2022-07-23T00:02:36;100759.06;;;22.83;
46015;BME280;36844;51.898;-0.874;2022-07-23T00:05:22;100752.88;;;22.82;
46015;BME280;36844;51.898;-0.874;2022-07-23T00:08:07;100764.16;;;22.81;
46015;BME280;36844;51.898;-0.874;2022-07-23T00:10:53;100759.47;;;22.81;
46015;BME280;36844;51.898;-0.874;2022-07-23T00:13:39;100758.72;;;22.81;
46015;BME280;36844;51.898;-0.874;2022-07-23T00:16:24;100762.63;;;22.80;
46015;BME280;36844;51.898;-0.874;2022-07-23T00:19:10;100761.09;;;22.79;
46015;BME280;36844;51.898;-0.874;2022-07-23T00:21:55;100759.56;;;22.78;
46015;BME280;36844;51.898;-0.874;2022-07-23T00:24:41;100775.84;;;22.78;
46015;BME280;36844;51.898;-0.874;2022-07-23T00:27:27;100765.44;;;22.76;
46015;BME280;36844;51.898;-0.874;2022-07-23T00:30:12;100764.66;;;22.76;
46015;BME280;36844;51.898;-0.874;2022-07-23T00:32:59;100762.72;;;22.76;
46015;BME280;36844;51.898;-0.874;2022-07-23T00:35:45;100768.16;;;22.76;
46015;BME280;36844;51.898;-0.874;2022-07-23T00:38:31;100761.19;;;22.75;
46015;BME280;36844;51.898;-0.874;2022-07-23T00:41:16;100759.63;;;22.74;
46015;BME280;36844;51.898;-0.874;2022-07-23T00:44:21;100759.63;;;22.74;
46015;BME280;36844;51.898;-0.874;2022-07-23T00:47:07;100770.94;;;22.73;
46015;BME280;36844;51.898;-0.874;2022-07-23T00:49:52;100766.69;;;22.72;
46015;BME280;36844;51.898;-0.874;2022-07-23T00:52:38;100764.75;;;22.72;
46015;BME280;36844;51.898;-0.874;2022-07-23T00:55:24;100759.31;;;22.72;
46015;BME280;36844;51.898;-0.874;2022-07-23T00:58:09;100747.69;;;22.72;
46015;BME280;36844;51.898;-0.874;2022-07-23T01:00:56;100750.81;;;22.70;
46015;BME280;36844;51.898;-0.874;2022-07-23T01:03:42;100753.53;;;22.70;
46015;BME280;36844;51.898;-0.874;2022-07-23T01:06:27;100747.31;;;22.70;
46015;BME280;36844;51.898;-0.874;2022-07-23T01:09:13;100743.88;;;22.69;
46015;BME280;36844;51.898;-0.874;2022-07-23T01:11:59;100736.47;;;22.70;
46015;BME280;36844;51.898;-0.874;2022-07-23T01:14:45;100739.59;;;22.68;
46015;BME280;36844;51.898;-0.874;2022-07-23T01:17:30;100738.84;;;22.68;
46015;BME280;36844;51.898;-0.874;2022-07-23T01:20:16;100736.91;;;22.68;
46015;BME280;36844;51.898;-0.874;2022-07-23T01:23:02;100731.88;;;22.67;
46015;BME280;36844;51.898;-0.874;2022-07-23T01:25:54;100737.31;;;22.67;
46015;BME280;36844;51.898;-0.874;2022-07-23T01:28:40;100735.78;;;22.66;
46015;BME280;36844;51.898;-0.874;2022-07-23T01:31:26;100730.34;;;22.66;
46015;BME280;36844;51.898;-0.874;2022-07-23T01:34:11;100722.19;;;22.66;
46015;BME280;36844;51.898;-0.874;2022-07-23T01:36:57;100717.97;;;22.65;
46015;BME280;36844;51.898;-0.874;2022-07-23T01:39:42;100717.22;;;22.64;
46015;BME280;36844;51.898;-0.874;2022-07-23T01:42:28;100719.16;;;22.64;
46015;BME280;36844;51.898;-0.874;2022-07-23T01:45:14;100723.03;;;22.63;
46015;BME280;36844;51.898;-0.874;2022-07-23T01:47:59;100720.31;;;22.63;
46015;BME280;36844;51.898;-0.874;2022-07-23T01:50:46;100724.25;;;22.62;
46015;BME280;36844;51.898;-0.874;2022-07-23T01:53:31;100731.19;;;22.63;
46015;BME280;36844;51.898;-0.874;2022-07-23T01:56:17;100724.25;;;22.62;
46015;BME280;36844;51.898;-0.874;2022-07-23T01:59:04;100724.25;;;22.62;
46015;BME280;36844;51.898;-0.874;2022-07-23T02:01:49;100720.78;;;22.61;
46015;BME280;36844;51.898;-0.874;2022-07-23T02:04:38;100721.19;;;22.60;
46015;BME280;36844;51.898;-0.874;2022-07-23T02:07:23;100722.72;;;22.61;
46015;BME280;36844;51.898;-0.874;2022-07-23T02:10:09;100720.41;;;22.59;
46015;BME280;36844;51.898;-0.874;2022-07-23T02:12:55;100723.13;;;22.59;
46015;BME280;36844;51.898;-0.874;2022-07-23T02:15:40;100718.91;;;22.58;
46015;BME280;36844;51.898;-0.874;2022-07-23T02:18:26;100718.16;;;22.58;
46015;BME280;36844;51.898;-0.874;2022-07-23T02:21:11;100716.19;;;22.58;
46015;BME280;36844;51.898;-0.874;2022-07-23T02:23:57;100714.66;;;22.57;
46015;BME280;36844;51.898;-0.874;2022-07-23T02:26:43;100722.03;;;22.57;
46015;BME280;36844;51.898;-0.874;2022-07-23T02:29:28;100721.25;;;22.56;
46015;BME280;36844;51.898;-0.874;2022-07-23T02:32:14;100724.41;;;22.55;
46015;BME280;36844;51.898;-0.874;2022-07-23T02:34:59;100725.16;;;22.55;
46015;BME280;36844;51.898;-0.874;2022-07-23T02:37:45;100733.31;;;22.55;
46015;BME280;36844;51.898;-0.874;2022-07-23T02:40:31;100728.31;;;22.54;
46015;BME280;36844;51.898;-0.874;2022-07-23T02:43:16;100727.53;;;22.53;
46015;BME280;36844;51.898;-0.874;2022-07-23T02:46:02;100722.88;;;22.54;
46015;BME280;36844;51.898;-0.874;2022-07-23T02:48:48;100730.25;;;22.53;
46015;BME280;36844;51.898;-0.874;2022-07-23T02:51:33;100737.63;;;22.53;
46015;BME280;36844;51.898;-0.874;2022-07-23T02:54:19;100736.88;;;22.52;
46015;BME280;36844;51.898;-0.874;2022-07-23T02:57:04;100740.34;;;22.53;
46015;BME280;36844;51.898;-0.874;2022-07-23T02:59:50;100733.41;;;22.52;
46015;BME280;36844;51.898;-0.874;2022-07-23T03:02:35;100727.97;;;22.52;
46015;BME280;36844;51.898;-0.874;2022-07-23T03:05:21;100731.84;;;22.51;
46015;BME280;36844;51.898;-0.874;2022-07-23T03:08:07;100722.19;;;22.50;
46015;BME280;36844;51.898;-0.874;2022-07-23T03:10:52;100716.75;;;22.50;
46015;BME280;36844;51.898;-0.874;2022-07-23T03:13:38;100721.44;;;22.49;
46015;BME280;36844;51.898;-0.874;2022-07-23T03:16:24;100711.31;;;22.50;
46015;BME280;36844;51.898;-0.874;2022-07-23T03:19:09;100716.00;;;22.49;
46015;BME280;36844;51.898;-0.874;2022-07-23T03:21:55;100724.56;;;22.48;
46015;BME280;36844;51.898;-0.874;2022-07-23T03:24:40;100735.41;;;22.48;
46015;BME280;36844;51.898;-0.874;2022-07-23T03:27:41;100730.75;;;22.48;
46015;BME280;36844;51.898;-0.874;2022-07-23T03:30:27;100732.69;;;22.48;
46015;BME280;36844;51.898;-0.874;2022-07-23T03:33:13;100725.72;;;22.47;
46015;BME280;36844;51.898;-0.874;2022-07-23T03:35:58;100745.50;;;22.47;
46015;BME280;36844;51.898;-0.874;2022-07-23T03:38:44;100741.28;;;22.46;
46015;BME280;36844;51.898;-0.874;2022-07-23T03:41:30;100741.69;;;22.45;
46015;BME280;36844;51.898;-0.874;2022-07-23T03:44:15;100743.25;;;22.46;
46015;BME280;36844;51.898;-0.874;2022-07-23T03:47:01;100747.91;;;22.45;
46015;BME280;36844;51.898;-0.874;2022-07-23T03:49:47;100747.13;;;22.45;
46015;BME280;36844;51.898;-0.874;2022-07-23T03:52:33;100740.13;;;22.44;
46015;BME280;36844;51.898;-0.874;2022-07-23T03:55:18;100734.72;;;22.44;
46015;BME280;36844;51.898;-0.874;2022-07-23T03:58:04;100733.94;;;22.43;
46015;BME280;36844;51.898;-0.874;2022-07-23T04:00:49;100733.22;;;22.43;
46015;BME280;36844;51.898;-0.874;2022-07-23T04:03:35;100728.50;;;22.43;
46015;BME280;36844;51.898;-0.874;2022-07-23T04:06:20;100727.03;;;22.42;
46015;BME280;36844;51.898;-0.874;2022-07-23T04:09:06;100728.19;;;22.41;
46015;BME280;36844;51.898;-0.874;2022-07-23T04:11:52;100719.28;;;22.41;
46015;BME280;36844;51.898;-0.874;2022-07-23T04:14:37;100730.13;;;22.41;
46015;BME280;36844;51.898;-0.874;2022-07-23T04:17:23;100721.22;;;22.40;
46015;BME280;36844;51.898;-0.874;2022-07-23T04:20:08;100725.13;;;22.39;
46015;BME280;36844;51.898;-0.874;2022-07-23T04:22:54;100718.94;;;22.39;
46015;BME280;36844;51.898;-0.874;2022-07-23T04:25:40;100729.81;;;22.39;
46015;BME280;36844;51.898;-0.874;2022-07-23T04:28:25;100735.25;;;22.39;
46015;BME280;36844;51.898;-0.874;2022-07-23T04:31:11;100736.41;;;22.38;
46015;BME280;36844;51.898;-0.874;2022-07-23T04:33:56;100736.06;;;22.36;
46015;BME280;36844;51.898;-0.874;2022-07-23T04:36:42;100734.91;;;22.37;
46015;BME280;36844;51.898;-0.874;2022-07-23T04:39:27;100744.97;;;22.36;
46015;BME280;36844;51.898;-0.874;2022-07-23T04:42:13;100746.91;;;22.36;
46015;BME280;36844;51.898;-0.874;2022-07-23T04:44:59;100748.84;;;22.35;
46015;BME280;36844;51.898;-0.874;2022-07-23T04:47:44;100755.06;;;22.36;
46015;BME280;36844;51.898;-0.874;2022-07-23T04:50:30;100758.19;;;22.34;
46015;BME280;36844;51.898;-0.874;2022-07-23T04:53:15;100757.47;;;22.34;
46015;BME280;36844;51.898;-0.874;2022-07-23T04:56:01;100749.31;;;22.34;
46015;BME280;36844;51.898;-0.874;2022-07-23T04:58:47;100755.91;;;22.33;
46015;BME280;36844;51.898;-0.874;2022-07-23T05:01:32;100746.22;;;22.32;
46015;BME280;36844;51.898;-0.874;2022-07-23T05:04:18;100749.69;;;22.32;
46015;BME280;36844;51.898;-0.874;2022-07-23T05:07:03;100745.47;;;22.31;
46015;BME280;36844;51.898;-0.874;2022-07-23T05:09:49;100743.50;;;22.32;
46015;BME280;36844;51.898;-0.874;2022-07-23T05:12:34;100747.44;;;22.31;
46015;BME280;36844;51.898;-0.874;2022-07-23T05:15:20;100743.97;;;22.30;
46015;BME280;36844;51.898;-0.874;2022-07-23T05:18:06;100745.91;;;22.30;
46015;BME280;36844;51.898;-0.874;2022-07-23T05:20:51;100749.78;;;22.29;
46015;BME280;36844;51.898;-0.874;2022-07-23T05:23:37;100742.41;;;22.29;
46015;BME280;36844;51.898;-0.874;2022-07-23T05:26:22;100740.13;;;22.28;
46015;BME280;36844;51.898;-0.874;2022-07-23T05:29:08;100737.81;;;22.26;
46015;BME280;36844;51.898;-0.874;2022-07-23T05:31:53;100735.88;;;22.27;
46015;BME280;36844;51.898;-0.874;2022-07-23T05:34:39;100742.47;;;22.26;
46015;BME280;36844;51.898;-0.874;2022-07-23T05:37:24;100747.13;;;22.25;
46015;BME280;36844;51.898;-0.874;2022-07-23T05:40:10;100744.41;;;22.25;
46015;BME280;36844;51.898;-0.874;2022-07-23T05:42:56;100740.19;;;22.24;
46015;BME280;36844;51.898;-0.874;2022-07-23T05:45:42;100745.63;;;22.24;
46015;BME280;36844;51.898;-0.874;2022-07-23T05:48:27;100761.91;;;22.24;
46015;BME280;36844;51.898;-0.874;2022-07-23T05:51:13;100752.97;;;22.24;
46015;BME280;36844;51.898;-0.874;2022-07-23T05:53:58;100752.25;;;22.23;
46015;BME280;36844;51.898;-0.874;2022-07-23T05:56:44;100755.69;;;22.24;
46015;BME280;36844;51.898;-0.874;2022-07-23T05:59:30;100756.91;;;22.23;
46015;BME280;36844;51.898;-0.874;2022-07-23T06:02:15;100763.09;;;22.23;
46015;BME280;36844;51.898;-0.874;2022-07-23T06:05:01;100756.91;;;22.23;
46015;BME280;36844;51.898;-0.874;2022-07-23T06:07:47;100766.97;;;22.22;
46015;BME280;36844;51.898;-0.874;2022-07-23T06:10:32;100769.69;;;22.22;
46015;BME280;36844;51.898;-0.874;2022-07-23T06:13:18;100775.88;;;22.23;
46015;BME280;36844;51.898;-0.874;2022-07-23T06:16:04;100760.03;;;22.21;
46015;BME280;36844;51.898;-0.874;2022-07-23T06:18:49;100757.31;;;22.21;
46015;BME280;36844;51.898;-0.874;2022-07-23T06:21:35;100759.25;;;22.21;
46015;BME280;36844;51.898;-0.874;2022-07-23T06:24:20;100770.09;;;22.21;
46015;BME280;36844;51.898;-0.874;2022-07-23T06:27:06;100767.41;;;22.21;
46015;BME280;36844;51.898;-0.874;2022-07-23T06:29:52;100759.25;;;22.21;
46015;BME280;36844;51.898;-0.874;2022-07-23T06:32:37;100755.38;;;22.22;
46015;BME280;36844;51.898;-0.874;2022-07-23T06:35:23;100756.91;;;22.23;
46015;BME280;36844;51.898;-0.874;2022-07-23T06:38:09;100752.66;;;22.22;
46015;BME280;36844;51.898;-0.874;2022-07-23T06:40:54;100756.53;;;22.21;
46015;BME280;36844;51.898;-0.874;2022-07-23T06:43:40;100759.31;;;22.17;
46015;BME280;36844;51.898;-0.874;2022-07-23T06:46:25;100755.91;;;22.13;
46015;BME280;36844;51.898;-0.874;2022-07-23T06:49:11;100759.47;;;22.10;
46015;BME280;36844;51.898;-0.874;2022-07-23T06:51:57;100760.31;;;22.07;
46015;BME280;36844;51.898;-0.874;2022-07-23T06:54:42;100766.56;;;22.04;
46015;BME280;36844;51.898;-0.874;2022-07-23T06:57:28;100773.19;;;22.03;
46015;BME280;36844;51.898;-0.874;2022-07-23T07:00:13;100775.91;;;22.03;
46015;BME280;36844;51.898;-0.874;2022-07-23T07:02:59;100780.13;;;22.04;
46015;BME280;36844;51.898;-0.874;2022-07-23T07:05:45;100767.31;;;22.04;
46015;BME280;36844;51.898;-0.874;2022-07-23T07:08:31;100761.88;;;22.04;
46015;BME280;36844;51.898;-0.874;2022-07-23T07:11:16;100758.00;;;22.05;
46015;BME280;36844;51.898;-0.874;2022-07-23T07:14:02;100754.09;;;22.06;
46015;BME280;36844;51.898;-0.874;2022-07-23T07:16:49;100759.13;;;22.08;
46015;BME280;36844;51.898;-0.874;2022-07-23T07:19:35;100763.03;;;22.07;
46015;BME280;36844;51.898;-0.874;2022-07-23T07:22:20;100761.84;;;22.08;
46015;BME280;36844;51.898;-0.874;2022-07-23T07:25:06;100765.31;;;22.08;
46015;BME280;36844;51.898;-0.874;2022-07-23T07:27:52;100768.38;;;22.11;
46015;BME280;36844;51.898;-0.874;2022-07-23T07:30:37;100761.00;;;22.11;
46015;BME280;36844;51.898;-0.874;2022-07-23T07:33:23;100750.94;;;22.12;
46015;BME280;36844;51.898;-0.874;2022-07-23T07:36:08;100758.63;;;22.13;
46015;BME280;36844;51.898;-0.874;2022-07-23T07:38:54;100763.66;;;22.15;
46015;BME280;36844;51.898;-0.874;2022-07-23T07:41:39;100770.19;;;22.17;
46015;BME280;36844;51.898;-0.874;2022-07-23T07:44:25;100762.81;;;22.18;
46015;BME280;36844;51.898;-0.874;2022-07-23T07:47:11;100770.53;;;22.19;
46015;BME280;36844;51.898;-0.874;2022-07-23T07:49:56;100763.53;;;22.22;
46015;BME280;36844;51.898;-0.874;2022-07-23T07:52:42;100757.31;;;22.21;
46015;BME280;36844;51.898;-0.874;2022-07-23T07:55:28;100757.66;;;22.23;
46015;BME280;36844;51.898;-0.874;2022-07-23T07:58:13;100755.69;;;22.24;
46015;BME280;36844;51.898;-0.874;2022-07-23T08:00:59;100765.38;;;22.25;
46015;BME280;36844;51.898;-0.874;2022-07-23T08:03:45;100761.47;;;22.26;
46015;BME280;36844;51.898;-0.874;2022-07-23T08:06:31;100763.81;;;22.27;
46015;BME280;36844;51.898;-0.874;2022-07-23T08:09:17;100774.22;;;22.29;
46015;BME280;36844;51.898;-0.874;2022-07-23T08:12:02;100771.50;;;22.29;
46015;BME280;36844;51.898;-0.874;2022-07-23T08:14:48;100776.53;;;22.30;
46015;BME280;36844;51.898;-0.874;2022-07-23T08:17:33;100783.47;;;22.31;
46015;BME280;36844;51.898;-0.874;2022-07-23T08:20:19;100781.50;;;22.32;
46015;BME280;36844;51.898;-0.874;2022-07-23T08:23:06;100783.06;;;22.33;
46015;BME280;36844;51.898;-0.874;2022-07-23T08:25:52;100787.31;;;22.34;
46015;BME280;36844;51.898;-0.874;2022-07-23T08:28:37;100782.19;;;22.36;
46015;BME280;36844;51.898;-0.874;2022-07-23T08:31:23;100779.50;;;22.36;
46015;BME280;36844;51.898;-0.874;2022-07-23T08:34:08;100779.06;;;22.37;
46015;BME280;36844;51.898;-0.874;2022-07-23T08:36:54;100765.50;;;22.37;
46015;BME280;36844;51.898;-0.874;2022-07-23T08:39:40;100760.41;;;22.39;
46015;BME280;36844;51.898;-0.874;2022-07-23T08:42:25;100763.47;;;22.41;
46015;BME280;36844;51.898;-0.874;2022-07-23T08:45:11;100772.41;;;22.42;
46015;BME280;36844;51.898;-0.874;2022-07-23T08:47:57;100774.66;;;22.43;
46015;BME280;36844;51.898;-0.874;2022-07-23T08:50:47;100771.94;;;22.43;
46015;BME280;36844;51.898;-0.874;2022-07-23T08:53:33;100778.16;;;22.44;
46015;BME280;36844;51.898;-0.874;2022-07-23T08:56:20;100774.28;;;22.45;
46015;BME280;36844;51.898;-0.874;2022-07-23T08:59:06;100767.66;;;22.46;
46015;BME280;36844;51.898;-0.874;2022-07-23T09:01:51;100769.94;;;22.47;
46015;BME280;36844;51.898;-0.874;2022-07-23T09:04:37;100771.47;;;22.48;
46015;BME280;36844;51.898;-0.874;2022-07-23T09:07:22;100759.53;;;22.46;
46015;BME280;36844;51.898;-0.874;2022-07-23T09:10:09;100769.13;;;22.50;
46015;BME280;36844;51.898;-0.874;2022-07-23T09:12:55;100765.97;;;22.52;
46015;BME280;36844;51.898;-0.874;2022-07-23T09:15:50;100774.13;;;22.52;
46015;BME280;36844;51.898;-0.874;2022-07-23T09:18:37;100770.22;;;22.53;
46015;BME280;36844;51.898;-0.874;2022-07-23T09:24:12;100777.94;;;22.54;
46015;BME280;36844;51.898;-0.874;2022-07-23T09:27:01;100770.13;;;22.56;
46015;BME280;36844;51.898;-0.874;2022-07-23T09:29:55;100775.56;;;22.56;
46015;BME280;36844;51.898;-0.874;2022-07-23T09:32:40;100767.78;;;22.58;
46015;BME280;36844;51.898;-0.874;2022-07-23T09:35:43;100779.75;;;22.61;
46015;BME280;36844;51.898;-0.874;2022-07-23T09:38:28;100770.41;;;22.62;
46015;BME280;36844;51.898;-0.874;2022-07-23T09:41:14;100766.50;;;22.63;
46015;BME280;36844;51.898;-0.874;2022-07-23T09:44:06;100773.06;;;22.65;
46015;BME280;36844;51.898;-0.874;2022-07-23T09:46:52;100774.56;;;22.66;
46015;BME280;36844;51.898;-0.874;2022-07-23T09:49:58;100771.44;;;22.68;
46015;BME280;36844;51.898;-0.874;2022-07-23T09:52:47;100769.06;;;22.70;
46015;BME280;36844;51.898;-0.874;2022-07-23T09:55:34;100765.16;;;22.71;
46015;BME280;36844;51.898;-0.874;2022-07-23T09:58:23;100761.25;;;22.72;
46015;BME280;36844;51.898;-0.874;2022-07-23T10:01:11;100769.00;;;22.73;
46015;BME280;36844;51.898;-0.874;2022-07-23T10:03:58;100764.66;;;22.76;
46015;BME280;36844;51.898;-0.874;2022-07-23T10:06:44;100763.47;;;22.77;
46015;BME280;36844;51.898;-0.874;2022-07-23T10:09:32;100756.06;;;22.77;
46015;BME280;36844;51.898;-0.874;2022-07-23T10:12:18;100767.31;;;22.79;
46015;BME280;36844;51.898;-0.874;2022-07-23T10:15:19;100755.25;;;22.80;
46015;BME280;36844;51.898;-0.874;2022-07-23T10:18:04;100768.41;;;22.82;
46015;BME280;36844;51.898;-0.874;2022-07-23T10:20:50;100761.75;;;22.83;
46015;BME280;36844;51.898;-0.874;2022-07-23T10:23:44;100772.25;;;22.84;
46015;BME280;36844;51.898;-0.874;2022-07-23T10:26:35;100760.16;;;22.85;
46015;BME280;36844;51.898;-0.874;2022-07-23T10:35:20;100759.34;;;22.88;
46015;BME280;36844;51.898;-0.874;2022-07-23T10:38:11;100757.34;;;22.89;
46015;BME280;36844;51.898;-0.874;2022-07-23T10:40:59;100748.03;;;22.90;
46015;BME280;36844;51.898;-0.874;2022-07-23T10:43:45;100755.00;;;22.91;
46015;BME280;36844;51.898;-0.874;2022-07-23T10:46:54;100760.00;;;22.92;
46015;BME280;36844;51.898;-0.874;2022-07-23T10:55:49;100753.06;;;22.91;
46015;BME280;36844;51.898;-0.874;2022-07-23T10:58:46;100760.00;;;22.92;
46015;BME280;36844;51.898;-0.874;2022-07-23T11:01:33;100759.25;;;22.92;
46015;BME280;36844;51.898;-0.874;2022-07-23T11:04:19;100745.66;;;22.92;
46015;BME280;36844;51.898;-0.874;2022-07-23T11:07:25;100735.13;;;22.94;
46015;BME280;36844;51.898;-0.874;2022-07-23T11:10:12;100738.63;;;22.94;
46015;BME280;36844;51.898;-0.874;2022-07-23T11:16:15;100727.31;;;22.96;
46015;BME280;36844;51.898;-0.874;2022-07-23T11:19:03;100728.09;;;22.96;
46015;BME280;36844;51.898;-0.874;2022-07-23T11:21:49;100733.53;;;22.96;
46015;BME280;36844;51.898;-0.874;2022-07-23T11:24:35;100734.63;;;22.99;
46015;BME280;36844;51.898;-0.874;2022-07-23T11:27:38;100736.47;;;23.02;
46015;BME280;36844;51.898;-0.874;2022-07-23T11:36:00;100730.53;;;23.07;
46015;BME280;36844;51.898;-0.874;2022-07-23T11:38:47;100723.16;;;23.07;
46015;BME280;36844;51.898;-0.874;2022-07-23T11:41:44;100721.53;;;23.10;
46015;BME280;36844;51.898;-0.874;2022-07-23T11:44:37;100713.72;;;23.12;
46015;BME280;36844;51.898;-0.874;2022-07-23T11:47:23;100724.94;;;23.14;
46015;BME280;36844;51.898;-0.874;2022-07-23T11:50:09;100730.69;;;23.16;
46015;BME280;36844;51.898;-0.874;2022-07-23T11:52:55;100731.44;;;23.16;
46015;BME280;36844;51.898;-0.874;2022-07-23T11:55:41;100722.91;;;23.18;
46015;BME280;36844;51.898;-0.874;2022-07-23T11:58:26;100718.97;;;23.19;
46015;BME280;36844;51.898;-0.874;2022-07-23T12:01:12;100723.63;;;23.18;
46015;BME280;36844;51.898;-0.874;2022-07-23T12:03:57;100715.06;;;23.20;
46015;BME280;36844;51.898;-0.874;2022-07-23T12:06:43;100720.50;;;23.20;
46015;BME280;36844;51.898;-0.874;2022-07-23T12:09:28;100708.44;;;23.21;
46015;BME280;36844;51.898;-0.874;2022-07-23T12:12:14;100706.47;;;23.21;
46015;BME280;36844;51.898;-0.874;2022-07-23T12:15:00;100697.16;;;23.22;
46015;BME280;36844;51.898;-0.874;2022-07-23T12:17:46;100700.63;;;23.23;
46015;BME280;36844;51.898;-0.874;2022-07-23T12:20:36;100700.94;;;23.25;
46015;BME280;36844;51.898;-0.874;2022-07-23T12:23:23;100704.75;;;23.27;
46015;BME280;36844;51.898;-0.874;2022-07-23T12:26:09;100704.75;;;23.27;
46015;BME280;36844;51.898;-0.874;2022-07-23T12:28:56;100700.00;;;23.31;
46015;BME280;36844;51.898;-0.874;2022-07-23T12:31:42;100706.97;;;23.33;
46015;BME280;36844;51.898;-0.874;2022-07-23T12:34:28;100697.97;;;23.36;
46015;BME280;36844;51.898;-0.874;2022-07-23T12:37:30;100693.63;;;23.38;
46015;BME280;36844;51.898;-0.874;2022-07-23T12:40:26;100703.31;;;23.39;
46015;BME280;36844;51.898;-0.874;2022-07-23T12:46:11;100708.22;;;23.44;
46015;BME280;36844;51.898;-0.874;2022-07-23T12:48:57;100705.84;;;23.46;
46015;BME280;36844;51.898;-0.874;2022-07-23T12:51:42;100703.44;;;23.48;
46015;BME280;36844;51.898;-0.874;2022-07-23T12:54:28;100703.44;;;23.48;
46015;BME280;36844;51.898;-0.874;2022-07-23T12:57:14;100692.06;;;23.53;
46015;BME280;36844;51.898;-0.874;2022-07-23T13:00:09;100692.38;;;23.55;
46015;BME280;36844;51.898;-0.874;2022-07-23T13:02:55;100694.22;;;23.58;
46015;BME280;36844;51.898;-0.874;2022-07-23T13:05:40;100688.34;;;23.60;
46015;BME280;36844;51.898;-0.874;2022-07-23T13:08:28;100681.72;;;23.61;
46015;BME280;36844;51.898;-0.874;2022-07-23T13:11:15;100681.28;;;23.62;
46015;BME280;36844;51.898;-0.874;2022-07-23T13:14:00;100681.28;;;23.62;
46015;BME280;36844;51.898;-0.874;2022-07-23T13:16:47;100676.97;;;23.65;
46015;BME280;36844;51.898;-0.874;2022-07-23T13:19:33;100684.25;;;23.68;
46015;BME280;36844;51.898;-0.874;2022-07-23T13:22:18;100684.25;;;23.68;
46015;BME280;36844;51.898;-0.874;2022-07-23T13:25:04;100688.84;;;23.71;
46015;BME280;36844;51.898;-0.874;2022-07-23T13:27:50;100685.34;;;23.70;
46015;BME280;36844;51.898;-0.874;2022-07-23T13:30:35;100690.34;;;23.72;
46015;BME280;36844;51.898;-0.874;2022-07-23T13:33:22;100682.53;;;23.74;
46015;BME280;36844;51.898;-0.874;2022-07-23T13:36:07;100678.59;;;23.75;
46015;BME280;36844;51.898;-0.874;2022-07-23T13:38:53;100678.59;;;23.75;
46015;BME280;36844;51.898;-0.874;2022-07-23T13:41:39;100670.03;;;23.76;
46015;BME280;36844;51.898;-0.874;2022-07-23T13:44:24;100675.00;;;23.78;
46015;BME280;36844;51.898;-0.874;2022-07-23T13:47:10;100675.00;;;23.78;
46015;BME280;36844;51.898;-0.874;2022-07-23T13:49:56;100674.59;;;23.79;
46015;BME280;36844;51.898;-0.874;2022-07-23T13:52:42;100674.59;;;23.79;
46015;BME280;36844;51.898;-0.874;2022-07-23T13:55:28;100674.59;;;23.79;
46015;BME280;36844;51.898;-0.874;2022-07-23T13:58:13;100682.75;;;23.79;
46015;BME280;36844;51.898;-0.874;2022-07-23T14:00:59;100687.00;;;23.80;
46015;BME280;36844;51.898;-0.874;2022-07-23T14:03:44;100682.75;;;23.79;
46015;BME280;36844;51.898;-0.874;2022-07-23T14:06:30;100677.31;;;23.79;
46015;BME280;36844;51.898;-0.874;2022-07-23T14:09:16;100687.78;;;23.81;
46015;BME280;36844;51.898;-0.874;2022-07-23T14:12:01;100680.34;;;23.81;
46015;BME280;36844;51.898;-0.874;2022-07-23T14:14:47;100680.34;;;23.81;
46015;BME280;36844;51.898;-0.874;2022-07-23T14:17:32;100678.09;;;23.80;
46015;BME280;36844;51.898;-0.874;2022-07-23T14:20:18;100672.19;;;23.81;
46015;BME280;36844;51.898;-0.874;2022-07-23T14:23:04;100674.50;;;23.83;
46015;BME280;36844;51.898;-0.874;2022-07-23T14:25:49;100673.72;;;23.82;
46015;BME280;36844;51.898;-0.874;2022-07-23T14:28:35;100675.25;;;23.83;
46015;BME280;36844;51.898;-0.874;2022-07-23T14:31:21;100677.97;;;23.83;
46015;BME280;36844;51.898;-0.874;2022-07-23T14:34:06;100676.78;;;23.84;
46015;BME280;36844;51.898;-0.874;2022-07-23T14:36:52;100687.66;;;23.84;
46015;BME280;36844;51.898;-0.874;2022-07-23T14:39:38;100691.91;;;23.85;
46015;BME280;36844;51.898;-0.874;2022-07-23T14:42:23;100689.19;;;23.85;
46015;BME280;36844;51.898;-0.874;2022-07-23T14:45:09;100686.47;;;23.85;
46015;BME280;36844;51.898;-0.874;2022-07-23T14:47:55;100681.03;;;23.85;
46015;BME280;36844;51.898;-0.874;2022-07-23T14:50:40;100677.09;;;23.86;
46015;BME280;36844;51.898;-0.874;2022-07-23T14:53:26;100668.19;;;23.86;
46015;BME280;36844;51.898;-0.874;2022-07-23T14:56:12;100669.69;;;23.87;
46015;BME280;36844;51.898;-0.874;2022-07-23T14:58:59;100666.97;;;23.87;
46015;BME280;36844;51.898;-0.874;2022-07-23T15:01:44;100663.50;;;23.86;
46015;BME280;36844;51.898;-0.874;2022-07-23T15:04:30;100658.03;;;23.86;
46015;BME280;36844;51.898;-0.874;2022-07-23T15:07:15;100652.59;;;23.86;
46015;BME280;36844;51.898;-0.874;2022-07-23T15:10:01;100653.81;;;23.85;
46015;BME280;36844;51.898;-0.874;2022-07-23T15:12:47;100653.81;;;23.85;
46015;BME280;36844;51.898;-0.874;2022-07-23T15:15:32;100648.81;;;23.84;
46015;BME280;36844;51.898;-0.874;2022-07-23T15:18:18;100656.19;;;23.83;
46015;BME280;36844;51.898;-0.874;2022-07-23T15:21:03;100650.41;;;23.81;
46015;BME280;36844;51.898;-0.874;2022-07-23T15:23:49;100644.97;;;23.81;
46015;BME280;36844;51.898;-0.874;2022-07-23T15:26:35;100644.97;;;23.81;
46015;BME280;36844;51.898;-0.874;2022-07-23T15:29:20;100632.25;;;23.78;
46015;BME280;36844;51.898;-0.874;2022-07-23T15:32:06;100634.19;;;23.78;
46015;BME280;36844;51.898;-0.874;2022-07-23T15:34:52;100641.59;;;23.77;
46015;BME280;36844;51.898;-0.874;2022-07-23T15:37:38;100633.88;;;23.76;
46015;BME280;36844;51.898;-0.874;2022-07-23T15:40:23;100639.75;;;23.74;
46015;BME280;36844;51.898;-0.874;2022-07-23T15:43:09;100637.47;;;23.73;
46015;BME280;36844;51.898;-0.874;2022-07-23T15:45:55;100633.22;;;23.72;